Aérodrome :
LOGIN :

S'inscrire | Disclaimer

   EN    FR    IT 

 










Légende :    VFR   VFR Marginal   IFR   IFR Intensif   IFR Très Intensif
Visi : 
Plafond : 
>= 8 km
>= 3000ft
5 à 8 km
1000 à 3000 ft
1500m à 5 km
500 à 1000 ft
800 à 1500m
200 à 500 ft
< 800m
< 200 ft
Symboles :   Orages  Brouillard  Fortes neiges  Fortes précipitations  Vent > 20 kt
SIGMETs :   Divers  Orages  Givrage  Turbulence  Onde Orograph.  Cendres Volcan.






- Altitude de l'aérodrome : 23 ft
- Code IATA : XFW


EDHI - Hamburg Finkenwerder

METARs EXPIRÉS :
  • 090450Z AUTO 20003KT 160V230 5000 // FEW012/// SCT014/// M02/M02 Q1006
  • 091850Z AUTO 24002KT 3500 // BKN027/// M02/M02 Q1007
  • 091820Z AUTO 00000KT 4300 // BKN027/// M01/M01 Q1007
  • 091750Z VRB01KT 4900 BR NSC M02/M02 Q1007
  • 091720Z VRB01KT 5000 BR FEW031 M01/M01 Q1007
  • 091650Z VRB02KT 6000 FEW029 M01/M02 Q1006
  • 091620Z VRB02KT 7000 FEW029 M00/M01 Q1006

TAF TAF EDHI
Valide du 09 à 18h jusqu'au 09 à 21h UTC


091700Z 0918/0921 16005KT 9000 FEW020
TEMPO 0918/0921 VRB03KT 2500 BCFG BKN006



MET'MAP, la Météo Aéronautique d'un coup d'oeil ! - Copyright ORBIFLY Décembre 2007 - Disclaimer

ORBIFLY MET'MAP TEAM :

Programmation & Développement : Alexandra Zaïnal
Sur une idée originale de : Baudouin d'Aumeries
Soutien technique & logistique : Manuel Goepfert
Assistance : Marc-Olivier Méhu




SOURCES & CREDITS :

   NOAA